Time;durP1;ratioP1;P1;durP2;ratioP2;P2;SDS_P1;SDS_P2;PMS_P1;PMS_P2;Temp;Humidity;BMP_temperature;BMP_pressure;BME280_temperature;BME280_humidity;BME280_pressure;Samples;Min_cycle;Max_cycle;Signal;HPM_P1;HPM_P2
2023/08/13 00:00:38;;;;;;;3.60;2.53;;;20.60;99.90;;;;;;5024995;28;20372;-74
2023/08/13 00:03:04;;;;;;;4.75;2.88;;;20.50;99.90;;;;;;5012244;28;20030;-74
2023/08/13 00:05:29;;;;;;;4.80;3.38;;;20.50;99.90;;;;;;5022784;28;20554;-75
2023/08/13 00:07:55;;;;;;;6.75;3.03;;;20.50;99.90;;;;;;5026903;28;20048;-75
2023/08/13 00:10:20;;;;;;;3.67;2.70;;;20.50;99.90;;;;;;5021163;28;20095;-75
2023/08/13 00:12:47;;;;;;;3.15;2.47;;;20.50;99.90;;;;;;5020539;28;20041;-75
2023/08/13 00:15:13;;;;;;;4.53;2.47;;;20.50;99.90;;;;;;5024083;28;20025;-75
2023/08/13 00:17:38;;;;;;;3.92;2.55;;;20.50;99.90;;;;;;5021666;28;20387;-75
2023/08/13 00:20:05;;;;;;;3.95;2.85;;;20.50;99.90;;;;;;5028151;28;20488;-74
2023/08/13 00:22:31;;;;;;;4.60;2.78;;;20.50;99.90;;;;;;5023964;28;20499;-76
2023/08/13 00:24:57;;;;;;;4.63;2.55;;;20.50;99.90;;;;;;5023382;28;20025;-77
2023/08/13 00:27:23;;;;;;;4.75;2.97;;;20.40;99.90;;;;;;5020216;28;20391;-76
2023/08/13 00:29:48;;;;;;;6.38;2.45;;;20.40;99.90;;;;;;5020878;28;20030;-76
2023/08/13 00:32:14;;;;;;;2.92;2.28;;;20.40;99.90;;;;;;5011121;28;20182;-76
2023/08/13 00:34:40;;;;;;;7.22;2.65;;;20.40;99.90;;;;;;5023315;28;20025;-74
2023/08/13 00:37:06;;;;;;;5.13;2.63;;;20.40;99.90;;;;;;5024234;28;20026;-77
2023/08/13 00:39:31;;;;;;;3.42;2.35;;;20.30;99.90;;;;;;5009086;28;20022;-77
2023/08/13 00:41:57;;;;;;;5.95;2.65;;;20.30;99.90;;;;;;5027499;28;20040;-77
2023/08/13 00:44:23;;;;;;;4.78;2.63;;;20.30;99.90;;;;;;5025321;28;20028;-77
2023/08/13 00:46:49;;;;;;;8.75;3.20;;;20.30;99.90;;;;;;5023376;28;20038;-77
2023/08/13 00:49:15;;;;;;;4.38;2.40;;;20.20;99.90;;;;;;5011285;28;20052;-77
2023/08/13 00:51:41;;;;;;;5.00;2.53;;;20.20;99.90;;;;;;5006863;28;20040;-76
2023/08/13 00:54:08;;;;;;;4.10;2.90;;;20.20;99.90;;;;;;5027836;28;20017;-77
2023/08/13 00:56:35;;;;;;;5.88;2.70;;;20.20;99.90;;;;;;5026759;28;20044;-76
2023/08/13 00:59:00;;;;;;;6.07;2.72;;;20.10;99.90;;;;;;5025756;28;20116;-76
2023/08/13 01:01:26;;;;;;;6.28;3.17;;;20.10;99.90;;;;;;5025971;28;20100;-75
2023/08/13 01:03:52;;;;;;;3.85;2.25;;;20.10;99.90;;;;;;5026265;28;20029;-75
2023/08/13 01:06:30;;;;;;;7.05;2.20;;;20.10;99.90;;;;;;5023729;28;20083;-76
2023/08/13 01:09:01;;;;;;;3.17;2.47;;;20.10;99.90;;;;;;5025494;28;20037;-76
2023/08/13 01:11:43;;;;;;;3.55;2.78;;;20.10;99.90;;;;;;5023010;28;20033;-76
2023/08/13 01:14:18;;;;;;;4.57;2.78;;;20.10;99.90;;;;;;5026907;28;20021;-76
2023/08/13 01:16:46;;;;;;;4.18;2.53;;;20.10;99.90;;;;;;5026836;28;20025;-75
2023/08/13 01:19:12;;;;;;;4.15;2.88;;;20.10;99.90;;;;;;5022761;28;20026;-75
2023/08/13 01:21:38;;;;;;;3.47;2.80;;;20.00;99.90;;;;;;5026710;28;20112;-76
2023/08/13 01:24:04;;;;;;;5.63;2.63;;;20.10;99.90;;;;;;5023249;28;20025;-77
2023/08/13 01:26:38;;;;;;;4.68;2.75;;;20.10;99.90;;;;;;5018557;28;20033;-77
2023/08/13 01:29:23;;;;;;;3.42;2.70;;;20.10;99.90;;;;;;5004995;28;20400;-77
2023/08/13 01:31:54;;;;;;;6.28;3.17;;;20.10;99.90;;;;;;5026482;28;20144;-76
2023/08/13 01:34:21;;;;;;;4.05;2.30;;;20.10;99.90;;;;;;5008537;28;20033;-76
2023/08/13 01:36:47;;;;;;;3.33;2.40;;;20.10;99.90;;;;;;5009888;28;20033;-76
2023/08/13 01:39:13;;;;;;;3.60;2.60;;;20.00;99.90;;;;;;5027249;28;20056;-75
2023/08/13 01:41:49;;;;;;;4.00;2.33;;;20.10;99.90;;;;;;5023988;28;20083;-77
2023/08/13 01:44:15;;;;;;;4.10;2.53;;;20.10;99.90;;;;;;5023268;28;20041;-75
2023/08/13 01:46:41;;;;;;;4.25;2.53;;;20.10;99.90;;;;;;5027425;28;20025;-77
2023/08/13 01:49:06;;;;;;;5.15;2.60;;;20.10;99.90;;;;;;5023631;28;20451;-76
2023/08/13 01:51:32;;;;;;;4.18;2.28;;;20.10;99.90;;;;;;5010282;28;20037;-76
2023/08/13 01:53:57;;;;;;;3.88;2.45;;;20.10;99.90;;;;;;5027867;28;20022;-77
2023/08/13 01:56:23;;;;;;;3.53;2.67;;;20.10;99.90;;;;;;5007203;28;20036;-76
2023/08/13 01:58:48;;;;;;;3.40;2.53;;;20.10;99.90;;;;;;5024102;28;20048;-76
2023/08/13 02:01:14;;;;;;;4.15;3.28;;;20.20;99.90;;;;;;5019880;28;20037;-76
2023/08/13 02:03:40;;;;;;;3.97;2.78;;;20.20;99.90;;;;;;5009356;28;20108;-76
2023/08/13 02:06:05;;;;;;;3.13;2.20;;;20.20;99.90;;;;;;5022029;28;20036;-76
2023/08/13 02:08:31;;;;;;;4.82;2.35;;;20.20;99.90;;;;;;5004814;28;20432;-76
2023/08/13 02:10:58;;;;;;;3.30;2.33;;;20.30;99.90;;;;;;5009303;28;20094;-76
2023/08/13 02:13:24;;;;;;;4.78;2.55;;;20.30;99.90;;;;;;5009587;28;20044;-76
2023/08/13 02:15:49;;;;;;;4.00;3.08;;;20.20;99.90;;;;;;5025596;28;20030;-77
2023/08/13 02:18:15;;;;;;;3.15;2.35;;;20.20;99.90;;;;;;5024657;28;20099;-77
2023/08/13 02:20:41;;;;;;;3.25;2.50;;;20.20;99.90;;;;;;5026800;28;20067;-77
2023/08/13 02:23:06;;;;;;;5.25;2.58;;;20.30;99.90;;;;;;5026906;28;20030;-77
2023/08/13 02:25:32;;;;;;;4.60;2.90;;;20.20;99.90;;;;;;5008969;28;20049;-77
2023/08/13 02:27:58;;;;;;;3.25;2.30;;;20.20;99.90;;;;;;5024209;28;20037;-76
2023/08/13 02:30:23;;;;;;;4.05;2.60;;;20.20;99.90;;;;;;5023438;28;20480;-76
2023/08/13 02:32:49;;;;;;;3.90;2.92;;;20.20;99.90;;;;;;5028064;28;20151;-77
2023/08/13 02:35:15;;;;;;;3.05;2.38;;;20.20;99.90;;;;;;5024574;28;20544;-76
2023/08/13 02:37:40;;;;;;;5.47;2.80;;;20.20;99.90;;;;;;5023143;28;20029;-76
2023/08/13 02:40:07;;;;;;;2.60;2.05;;;20.20;99.90;;;;;;5026319;28;20029;-77
2023/08/13 02:42:33;;;;;;;3.10;2.42;;;20.10;99.90;;;;;;5010004;28;20029;-77
2023/08/13 02:44:58;;;;;;;6.07;2.72;;;20.10;99.90;;;;;;5026884;28;20033;-76
2023/08/13 02:47:24;;;;;;;3.83;1.98;;;20.20;99.90;;;;;;5011759;28;20028;-75
2023/08/13 02:49:50;;;;;;;3.53;2.28;;;20.20;99.90;;;;;;5022421;28;20033;-75
2023/08/13 02:52:16;;;;;;;5.10;2.47;;;20.10;99.90;;;;;;5029320;28;20394;-75
2023/08/13 02:54:41;;;;;;;5.82;3.42;;;20.10;99.90;;;;;;5028380;28;20024;-75
2023/08/13 02:57:07;;;;;;;5.13;3.45;;;20.10;99.90;;;;;;5026882;28;20045;-75
2023/08/13 02:59:33;;;;;;;6.30;4.35;;;20.10;99.90;;;;;;5025105;28;20037;-76
2023/08/13 03:01:58;;;;;;;4.15;3.25;;;20.10;99.90;;;;;;5027537;28;20017;-75
2023/08/13 03:04:24;;;;;;;6.85;3.75;;;20.10;99.90;;;;;;5030550;28;20056;-75
2023/08/13 03:06:50;;;;;;;6.97;3.88;;;20.00;99.90;;;;;;5014920;28;20030;-76
2023/08/13 03:09:21;;;;;;;6.93;3.47;;;20.00;99.90;;;;;;5027258;28;20049;-76
2023/08/13 03:11:47;;;;;;;6.20;3.67;;;19.90;99.90;;;;;;5026096;28;20048;-76
2023/08/13 03:14:13;;;;;;;5.45;3.15;;;19.90;99.90;;;;;;5010372;28;20029;-76
2023/08/13 03:16:39;;;;;;;4.55;3.15;;;19.90;99.90;;;;;;5012890;28;20041;-76
2023/08/13 03:19:04;;;;;;;5.10;3.08;;;19.90;99.90;;;;;;5009382;28;20170;-76
2023/08/13 03:21:30;;;;;;;5.10;2.70;;;19.90;99.90;;;;;;5023911;28;20022;-76
2023/08/13 03:23:55;;;;;;;5.43;3.33;;;19.90;99.90;;;;;;5008754;28;20044;-76
2023/08/13 03:26:21;;;;;;;3.13;2.72;;;19.90;99.90;;;;;;5009866;28;20034;-76
2023/08/13 03:28:47;;;;;;;4.35;2.70;;;19.90;99.90;;;;;;5023251;28;20584;-76
2023/08/13 03:31:12;;;;;;;4.70;2.80;;;19.90;99.90;;;;;;5012088;28;20120;-76
2023/08/13 03:33:38;;;;;;;4.18;2.97;;;19.90;99.90;;;;;;5013449;28;20104;-75
2023/08/13 03:36:04;;;;;;;6.85;2.88;;;19.90;99.90;;;;;;5027724;28;20498;-76
2023/08/13 03:38:30;;;;;;;9.75;4.05;;;19.90;99.90;;;;;;5024850;28;20373;-75
2023/08/13 03:40:56;;;;;;;3.78;3.13;;;19.90;99.90;;;;;;5024988;28;20103;-76
2023/08/13 03:43:22;;;;;;;4.53;2.72;;;19.90;99.90;;;;;;5009016;28;20029;-75
2023/08/13 03:45:48;;;;;;;6.15;3.50;;;19.80;99.90;;;;;;5026187;28;20539;-76
2023/08/13 03:48:13;;;;;;;5.95;3.53;;;19.90;99.90;;;;;;5025499;28;20558;-76
2023/08/13 03:50:43;;;;;;;6.90;2.90;;;19.80;99.90;;;;;;5008274;28;20033;-76
2023/08/13 03:53:09;;;;;;;6.40;3.20;;;19.80;99.90;;;;;;5026582;28;20518;-76
2023/08/13 03:55:36;;;;;;;4.88;3.20;;;19.80;99.90;;;;;;5026338;28;20069;-76
2023/08/13 03:58:02;;;;;;;3.72;2.90;;;19.80;99.90;;;;;;5024826;28;20403;-76
2023/08/13 04:00:28;;;;;;;6.13;3.30;;;19.80;99.90;;;;;;5027709;28;20025;-76
2023/08/13 04:02:54;;;;;;;4.85;3.53;;;19.80;99.90;;;;;;5004367;28;20033;-75
2023/08/13 04:05:20;;;;;;;5.20;4.15;;;19.80;99.90;;;;;;5025018;28;20021;-75
2023/08/13 04:07:45;;;;;;;3.92;2.83;;;19.80;99.90;;;;;;5023174;28;20037;-75
2023/08/13 04:10:11;;;;;;;7.15;3.20;;;19.70;99.90;;;;;;5020614;28;20048;-74
2023/08/13 04:12:37;;;;;;;11.63;4.50;;;19.70;99.90;;;;;;5018192;28;20021;-76
2023/08/13 04:15:03;;;;;;;6.00;3.25;;;19.70;99.90;;;;;;5015458;28;20025;-76
2023/08/13 04:17:29;;;;;;;8.63;4.07;;;19.70;99.90;;;;;;5023800;28;20108;-77
2023/08/13 04:19:54;;;;;;;6.10;3.30;;;19.70;99.90;;;;;;5008472;28;20124;-77
2023/08/13 04:22:20;;;;;;;6.28;3.25;;;19.70;99.90;;;;;;5027056;28;20044;-77
2023/08/13 04:24:50;;;;;;;4.70;3.28;;;19.70;99.90;;;;;;5021334;28;20041;-76
2023/08/13 04:27:19;;;;;;;3.85;2.83;;;19.70;99.90;;;;;;5027950;28;20083;-77
2023/08/13 04:29:45;;;;;;;5.25;2.35;;;19.70;99.90;;;;;;5025757;28;20036;-76
2023/08/13 04:32:10;;;;;;;7.57;3.28;;;19.70;99.90;;;;;;5007185;28;20060;-77
2023/08/13 04:34:36;;;;;;;3.90;3.00;;;19.70;99.90;;;;;;5019885;28;20125;-76
2023/08/13 04:37:01;;;;;;;5.28;2.95;;;19.70;99.90;;;;;;5024916;28;20400;-77
2023/08/13 04:39:27;;;;;;;5.78;2.78;;;19.70;99.90;;;;;;5007328;28;20037;-76
2023/08/13 04:41:57;;;;;;;7.85;3.30;;;19.80;99.90;;;;;;5026443;28;20391;-77
2023/08/13 04:44:23;;;;;;;6.03;3.72;;;19.70;99.90;;;;;;5019937;28;20113;-77
2023/08/13 04:46:49;;;;;;;5.40;3.40;;;19.70;99.90;;;;;;5018694;28;20021;-77
2023/08/13 04:49:14;;;;;;;6.93;3.70;;;19.70;99.90;;;;;;5006412;28;20049;-76
2023/08/13 04:51:40;;;;;;;4.50;2.92;;;19.70;99.90;;;;;;5017617;28;20084;-78
2023/08/13 04:54:06;;;;;;;4.78;3.00;;;19.70;99.90;;;;;;5020699;28;20658;-76
2023/08/13 04:56:31;;;;;;;6.30;3.70;;;19.70;99.90;;;;;;5021339;28;20037;-76
2023/08/13 04:58:57;;;;;;;5.38;3.60;;;19.70;99.90;;;;;;5024402;28;20036;-77
2023/08/13 05:01:23;;;;;;;4.80;3.35;;;19.70;99.90;;;;;;5020383;28;20148;-76
2023/08/13 05:03:48;;;;;;;5.13;3.50;;;19.70;99.90;;;;;;5005080;28;20025;-75
2023/08/13 05:06:14;;;;;;;5.00;3.55;;;19.70;99.90;;;;;;5028339;28;20037;-75
2023/08/13 05:08:39;;;;;;;8.52;4.18;;;19.70;99.90;;;;;;5003256;28;20029;-76
2023/08/13 05:11:06;;;;;;;4.95;3.45;;;19.70;99.90;;;;;;5025087;28;20048;-75
2023/08/13 05:13:31;;;;;;;4.70;3.70;;;19.70;99.90;;;;;;5007586;28;20025;-75
2023/08/13 05:15:57;;;;;;;5.30;3.83;;;19.60;99.90;;;;;;5027383;28;20457;-75
2023/08/13 05:18:22;;;;;;;6.80;4.25;;;19.60;99.90;;;;;;5024766;28;20451;-75
2023/08/13 05:20:49;;;;;;;6.38;3.88;;;19.60;99.90;;;;;;5019299;28;20041;-75
2023/08/13 05:23:15;;;;;;;9.80;5.20;;;19.70;99.90;;;;;;5017424;28;20025;-77
2023/08/13 05:25:40;;;;;;;8.25;4.60;;;19.70;99.90;;;;;;5018878;28;20091;-77
2023/08/13 05:28:07;;;;;;;10.63;6.22;;;19.70;99.90;;;;;;5016633;28;20507;-77
2023/08/13 05:30:37;;;;;;;7.97;4.50;;;19.70;99.90;;;;;;5025970;28;20064;-74
2023/08/13 05:33:03;;;;;;;8.30;4.07;;;19.70;99.90;;;;;;5025204;28;20037;-73
2023/08/13 05:35:29;;;;;;;8.00;4.40;;;19.70;99.90;;;;;;5022329;28;20076;-74
2023/08/13 05:37:55;;;;;;;7.30;4.55;;;19.60;99.90;;;;;;5011759;28;20038;-74
2023/08/13 05:40:21;;;;;;;7.47;4.68;;;19.70;99.90;;;;;;5020802;28;20117;-74
2023/08/13 05:42:47;;;;;;;10.48;4.95;;;19.60;99.90;;;;;;5010918;28;20030;-74
2023/08/13 05:45:12;;;;;;;8.93;4.53;;;19.60;99.90;;;;;;5022393;28;20072;-77
2023/08/13 05:47:38;;;;;;;9.02;5.32;;;19.60;99.90;;;;;;5012172;28;20477;-74
2023/08/13 05:50:04;;;;;;;9.20;4.68;;;19.70;99.90;;;;;;5009562;28;20049;-77
2023/08/13 05:52:29;;;;;;;5.35;4.57;;;19.70;99.90;;;;;;5026587;28;20034;-77
2023/08/13 05:54:55;;;;;;;7.10;4.30;;;19.70;99.90;;;;;;5027151;28;20508;-76
2023/08/13 05:57:21;;;;;;;6.15;3.80;;;19.80;99.90;;;;;;5031641;28;20063;-77
2023/08/13 05:59:47;;;;;;;4.93;4.20;;;19.70;99.90;;;;;;5028897;28;20065;-77
2023/08/13 06:02:12;;;;;;;4.82;3.72;;;19.70;99.90;;;;;;5022519;28;20017;-77
2023/08/13 06:04:38;;;;;;;6.15;5.00;;;19.70;99.90;;;;;;5029435;28;20024;-77
2023/08/13 06:07:04;;;;;;;8.13;4.47;;;19.70;99.90;;;;;;5026394;28;20021;-77
2023/08/13 06:09:30;;;;;;;7.32;3.90;;;19.70;99.90;;;;;;5024238;28;20065;-74
2023/08/13 06:11:56;;;;;;;8.30;4.18;;;19.70;99.90;;;;;;5020044;28;20049;-73
2023/08/13 06:14:22;;;;;;;6.63;4.30;;;19.80;99.90;;;;;;5027183;28;20380;-74
2023/08/13 06:16:47;;;;;;;6.68;4.55;;;19.70;99.90;;;;;;5024798;28;20025;-74
2023/08/13 06:19:13;;;;;;;6.78;4.55;;;19.70;99.90;;;;;;5022980;28;20722;-74
2023/08/13 06:21:39;;;;;;;9.50;5.07;;;19.80;99.90;;;;;;5023864;28;20068;-75
2023/08/13 06:24:05;;;;;;;8.52;4.95;;;19.70;99.90;;;;;;5027815;28;20043;-74
2023/08/13 06:26:32;;;;;;;7.35;4.47;;;19.80;99.90;;;;;;5022394;28;20101;-74
2023/08/13 06:28:57;;;;;;;6.07;4.32;;;19.80;99.90;;;;;;5027546;28;20037;-73
2023/08/13 06:31:23;;;;;;;8.25;5.13;;;19.80;99.90;;;;;;5029287;28;20365;-73
2023/08/13 06:33:48;;;;;;;7.15;4.80;;;19.80;99.90;;;;;;5027484;28;20025;-74
2023/08/13 06:36:14;;;;;;;6.43;4.45;;;19.80;99.90;;;;;;5027949;28;20017;-75
2023/08/13 06:38:40;;;;;;;8.13;4.97;;;19.80;99.90;;;;;;5025858;28;20022;-75
2023/08/13 06:41:06;;;;;;;4.47;3.92;;;19.80;99.90;;;;;;5026428;28;20018;-75
2023/08/13 06:43:32;;;;;;;6.75;4.38;;;19.70;99.90;;;;;;5027970;28;20021;-75
2023/08/13 06:46:00;;;;;;;6.72;4.65;;;19.70;99.90;;;;;;5024582;28;20021;-74
2023/08/13 06:48:27;;;;;;;7.43;4.70;;;19.80;99.90;;;;;;5023394;28;20018;-74
2023/08/13 06:50:56;;;;;;;7.43;5.25;;;19.80;99.90;;;;;;5027079;28;20034;-74
2023/08/13 06:53:22;;;;;;;5.85;4.47;;;19.90;99.90;;;;;;5024507;28;20419;-72
2023/08/13 06:55:48;;;;;;;6.18;4.75;;;19.90;99.90;;;;;;5023782;28;20216;-74
2023/08/13 06:58:14;;;;;;;6.43;4.40;;;19.90;99.90;;;;;;5027949;28;20570;-75
2023/08/13 07:00:40;;;;;;;6.90;4.43;;;20.00;99.90;;;;;;5009478;28;20029;-75
2023/08/13 07:03:07;;;;;;;6.32;4.47;;;20.00;99.90;;;;;;5026267;28;20041;-75
2023/08/13 07:05:32;;;;;;;7.40;4.35;;;20.10;99.90;;;;;;5025735;28;20022;-78
2023/08/13 07:07:58;;;;;;;6.55;4.50;;;20.10;99.90;;;;;;5026096;28;20036;-76
2023/08/13 07:10:23;;;;;;;6.28;4.28;;;20.10;99.90;;;;;;5022707;28;20067;-75
2023/08/13 07:12:49;;;;;;;7.97;4.82;;;20.10;99.90;;;;;;5029505;28;20029;-76
2023/08/13 07:15:15;;;;;;;7.40;4.50;;;20.00;99.90;;;;;;5029287;28;20447;-75
2023/08/13 07:17:40;;;;;;;9.80;4.40;;;20.10;99.90;;;;;;5026826;28;20033;-75
2023/08/13 07:20:09;;;;;;;5.55;4.57;;;20.00;99.90;;;;;;5022894;28;20048;-75
2023/08/13 07:22:37;;;;;;;7.68;4.90;;;20.10;99.90;;;;;;5026980;28;20029;-77
2023/08/13 07:25:05;;;;;;;9.10;4.30;;;20.10;99.90;;;;;;5010897;28;20714;-76
2023/08/13 07:27:31;;;;;;;7.53;4.30;;;20.00;99.90;;;;;;5025460;28;20380;-75
2023/08/13 07:29:56;;;;;;;7.93;4.57;;;20.10;99.90;;;;;;5022080;28;20037;-76
2023/08/13 07:32:22;;;;;;;7.53;5.10;;;20.10;99.90;;;;;;5026598;28;20021;-75
2023/08/13 07:34:48;;;;;;;6.15;4.45;;;20.20;99.90;;;;;;5022558;28;20064;-75
2023/08/13 07:37:13;;;;;;;6.72;5.10;;;20.20;99.90;;;;;;5027984;28;20404;-75
2023/08/13 07:39:40;;;;;;;6.40;4.38;;;20.30;99.90;;;;;;5027009;28;20033;-75
2023/08/13 07:42:08;;;;;;;7.05;4.32;;;20.40;99.90;;;;;;5024204;28;20025;-76
2023/08/13 07:44:34;;;;;;;8.38;4.68;;;20.50;99.90;;;;;;5009906;28;20028;-76
2023/08/13 07:47:00;;;;;;;4.72;3.95;;;20.50;99.90;;;;;;5024112;28;20030;-75
2023/08/13 07:49:27;;;;;;;6.40;3.80;;;20.50;99.90;;;;;;5025390;28;20388;-75
2023/08/13 07:51:53;;;;;;;4.78;4.07;;;20.50;99.90;;;;;;5029012;28;20392;-76
2023/08/13 07:54:20;;;;;;;7.10;4.10;;;20.60;99.90;;;;;;5015168;28;20021;-76
2023/08/13 07:56:46;;;;;;;5.43;3.85;;;20.70;99.90;;;;;;5012360;28;20048;-75
2023/08/13 07:59:11;;;;;;;8.05;4.97;;;20.70;99.90;;;;;;5010677;28;20038;-74
2023/08/13 08:01:37;;;;;;;4.40;4.00;;;20.80;99.90;;;;;;5027735;28;20385;-75
2023/08/13 08:04:04;;;;;;;6.13;4.03;;;20.90;99.90;;;;;;5029163;28;20052;-75
2023/08/13 08:06:29;;;;;;;5.68;4.45;;;21.10;99.90;;;;;;5013422;28;20681;-74
2023/08/13 08:08:55;;;;;;;8.05;4.40;;;21.20;99.90;;;;;;5017518;28;20112;-75
2023/08/13 08:11:21;;;;;;;5.60;4.05;;;21.30;99.90;;;;;;5032511;28;20100;-75
2023/08/13 08:13:46;;;;;;;7.57;4.60;;;21.30;99.90;;;;;;5018559;28;20025;-74
2023/08/13 08:16:12;;;;;;;5.68;4.30;;;21.40;99.90;;;;;;5013790;28;20018;-75
2023/08/13 08:18:38;;;;;;;5.78;4.78;;;21.40;99.90;;;;;;5005602;28;20025;-75
2023/08/13 08:21:04;;;;;;;6.40;4.43;;;21.30;99.90;;;;;;5029769;28;20021;-75
2023/08/13 08:23:30;;;;;;;7.20;4.38;;;21.30;99.90;;;;;;5029141;28;20062;-75
2023/08/13 08:25:56;;;;;;;5.82;4.45;;;21.30;99.90;;;;;;5012987;28;20036;-75
2023/08/13 08:28:21;;;;;;;5.43;4.20;;;21.30;99.90;;;;;;5024967;28;20034;-75
2023/08/13 08:30:47;;;;;;;5.80;4.15;;;21.30;99.90;;;;;;5026872;28;20033;-75
2023/08/13 08:33:13;;;;;;;7.95;4.38;;;21.30;99.90;;;;;;5008890;28;20025;-75
2023/08/13 08:35:39;;;;;;;8.68;4.15;;;21.40;99.90;;;;;;5023334;28;20072;-76
2023/08/13 08:38:04;;;;;;;5.20;3.92;;;21.40;99.90;;;;;;5029511;28;20029;-74
2023/08/13 08:40:30;;;;;;;9.00;4.50;;;21.50;99.90;;;;;;5027217;28;20033;-74
2023/08/13 08:42:56;;;;;;;6.53;4.20;;;21.60;99.90;;;;;;5029262;28;20032;-74
2023/08/13 08:45:23;;;;;;;6.53;4.57;;;21.60;99.90;;;;;;5011036;28;22221;-74
2023/08/13 08:47:50;;;;;;;4.57;4.05;;;21.70;99.90;;;;;;5029965;28;20472;-74
2023/08/13 08:50:17;;;;;;;5.75;3.78;;;21.80;99.90;;;;;;5027740;28;20027;-74
2023/08/13 08:52:43;;;;;;;4.75;4.35;;;21.80;99.90;;;;;;5018633;28;20396;-74
2023/08/13 08:55:11;;;;;;;4.63;4.03;;;21.80;99.90;;;;;;5028578;28;20096;-74
2023/08/13 08:57:38;;;;;;;6.15;3.88;;;21.90;99.90;;;;;;5032292;28;20033;-74
2023/08/13 09:00:05;;;;;;;4.80;4.20;;;21.90;99.90;;;;;;5026908;28;20116;-74
2023/08/13 09:02:31;;;;;;;5.78;4.47;;;21.90;99.90;;;;;;5013343;28;20029;-75
2023/08/13 09:04:58;;;;;;;4.90;4.32;;;22.00;99.90;;;;;;5011329;28;20029;-74
2023/08/13 09:07:32;;;;;;;5.85;4.57;;;22.00;99.90;;;;;;5013191;28;20067;-74
2023/08/13 09:09:59;;;;;;;4.55;4.10;;;22.10;99.90;;;;;;5029680;28;20033;-74
2023/08/13 09:12:24;;;;;;;6.90;4.50;;;22.10;99.90;;;;;;5029915;28;20045;-75
2023/08/13 09:14:54;;;;;;;4.63;3.90;;;22.10;99.90;;;;;;5030557;28;20375;-75
2023/08/13 09:17:24;;;;;;;5.07;4.57;;;22.10;99.90;;;;;;5014904;28;20387;-75
2023/08/13 09:19:49;;;;;;;5.85;4.47;;;22.10;99.90;;;;;;5028051;28;20774;-75
2023/08/13 09:22:15;;;;;;;6.22;3.72;;;22.20;99.90;;;;;;5013337;28;20017;-75
2023/08/13 09:24:41;;;;;;;4.53;3.95;;;22.20;99.90;;;;;;5027142;28;20038;-75
2023/08/13 09:27:08;;;;;;;6.75;3.83;;;22.20;99.90;;;;;;5023418;28;20616;-75
2023/08/13 09:29:38;;;;;;;8.07;4.72;;;22.20;99.90;;;;;;5013129;28;20040;-75
2023/08/13 09:32:04;;;;;;;6.55;4.50;;;22.20;99.90;;;;;;5029849;28;20856;-74
2023/08/13 09:34:31;;;;;;;4.78;3.63;;;22.40;99.90;;;;;;5027321;28;20026;-74
2023/08/13 09:36:57;;;;;;;6.30;4.45;;;22.40;99.90;;;;;;5025598;28;20460;-75
2023/08/13 09:39:25;;;;;;;5.20;4.10;;;22.50;99.90;;;;;;5011419;28;20059;-74
2023/08/13 09:41:52;;;;;;;5.03;4.00;;;22.60;99.90;;;;;;5010088;28;20029;-75
2023/08/13 09:44:20;;;;;;;7.30;4.50;;;22.60;99.90;;;;;;5030921;28;20040;-75
2023/08/13 09:46:53;;;;;;;5.55;4.65;;;22.80;99.90;;;;;;5027318;28;20025;-74
2023/08/13 09:49:22;;;;;;;5.07;3.97;;;22.90;99.90;;;;;;5026860;28;20033;-75
2023/08/13 09:51:51;;;;;;;5.45;3.80;;;23.00;99.90;;;;;;5024934;28;20042;-75
2023/08/13 09:54:36;;;;;;;7.40;4.25;;;23.10;99.90;;;;;;5029464;28;20025;-75
2023/08/13 09:57:03;;;;;;;6.47;3.97;;;23.20;99.90;;;;;;5013663;28;20066;-75
2023/08/13 09:59:35;;;;;;;4.05;3.53;;;23.20;99.90;;;;;;5018453;28;20033;-74
2023/08/13 10:02:04;;;;;;;6.32;4.20;;;23.40;99.90;;;;;;5036178;28;20018;-74
2023/08/13 10:04:30;;;;;;;4.40;3.58;;;23.40;99.90;;;;;;5028264;28;20021;-75
2023/08/13 10:06:57;;;;;;;4.85;3.90;;;23.40;99.90;;;;;;5014149;28;20071;-75
2023/08/13 10:09:24;;;;;;;6.32;4.18;;;23.40;99.90;;;;;;5029759;28;20032;-74
2023/08/13 10:11:50;;;;;;;4.10;3.38;;;23.50;99.90;;;;;;5030846;28;20033;-75
2023/08/13 10:14:17;;;;;;;5.38;3.28;;;23.60;99.90;;;;;;5033313;28;20030;-74
2023/08/13 10:16:44;;;;;;;4.28;3.28;;;23.60;99.90;;;;;;5031900;28;20071;-74
2023/08/13 10:19:09;;;;;;;5.50;3.83;;;23.70;99.90;;;;;;5017017;28;20029;-75
2023/08/13 10:21:36;;;;;;;6.43;4.05;;;23.80;99.90;;;;;;5035691;28;20418;-75
2023/08/13 10:24:10;;;;;;;4.20;3.80;;;23.80;99.90;;;;;;5015230;28;20108;-75
2023/08/13 10:26:36;;;;;;;4.95;3.42;;;23.80;99.90;;;;;;5029303;28;20239;-74
2023/08/13 10:29:16;;;;;;;5.53;4.30;;;23.90;99.90;;;;;;5015970;28;20474;-75
2023/08/13 10:31:59;;;;;;;5.00;4.13;;;24.00;99.90;;;;;;5017173;28;20076;-74
2023/08/13 10:34:57;;;;;;;7.50;4.35;;;24.10;99.90;;;;;;5029969;28;20490;-74
2023/08/13 10:37:24;;;;;;;5.80;4.45;;;24.20;99.90;;;;;;4990922;28;20033;-74
2023/08/13 10:39:55;;;;;;;5.30;4.15;;;24.30;99.90;;;;;;5011339;28;20061;-75
2023/08/13 10:42:27;;;;;;;5.93;4.60;;;24.40;99.90;;;;;;5029234;28;20036;-76
2023/08/13 10:44:54;;;;;;;4.63;4.10;;;24.50;99.90;;;;;;5025331;28;20102;-76
2023/08/13 10:47:23;;;;;;;6.53;4.50;;;24.50;99.90;;;;;;5024329;28;20083;-76
2023/08/13 10:49:48;;;;;;;6.03;4.68;;;24.50;99.90;;;;;;5029986;28;20072;-76
2023/08/13 10:52:14;;;;;;;8.35;4.22;;;24.60;99.90;;;;;;5028429;28;20033;-76
2023/08/13 10:54:41;;;;;;;5.63;4.93;;;24.60;99.90;;;;;;5026391;28;20037;-76
2023/08/13 10:57:07;;;;;;;7.45;3.88;;;24.60;99.90;;;;;;5028045;28;20104;-76
2023/08/13 10:59:38;;;;;;;5.30;4.25;;;24.60;99.90;;;;;;5032221;28;20033;-76
2023/08/13 11:02:16;;;;;;;4.00;3.65;;;24.60;99.90;;;;;;5029113;28;20044;-75
2023/08/13 11:04:44;;;;;;;6.47;4.72;;;24.70;99.90;;;;;;5020987;28;20022;-76
2023/08/13 11:07:11;;;;;;;5.80;4.22;;;24.70;99.90;;;;;;5026463;28;20029;-76
2023/08/13 11:09:42;;;;;;;6.63;4.43;;;24.80;99.90;;;;;;5034594;23;20044;-76
2023/08/13 11:12:09;;;;;;;6.22;4.13;;;24.80;99.90;;;;;;5032087;28;20056;-75
2023/08/13 11:14:36;;;;;;;8.55;5.35;;;24.70;99.90;;;;;;5016669;28;20071;-74
2023/08/13 11:17:01;;;;;;;10.55;4.40;;;24.80;99.90;;;;;;5028482;28;20021;-73
2023/08/13 11:19:27;;;;;;;9.05;5.40;;;24.90;99.90;;;;;;5015192;28;20048;-72
2023/08/13 11:21:54;;;;;;;8.50;4.03;;;24.90;99.90;;;;;;5027318;28;20021;-75
2023/08/13 11:24:21;;;;;;;8.15;5.78;;;24.90;99.90;;;;;;5029131;28;20025;-75
2023/08/13 11:26:49;;;;;;;6.55;4.30;;;25.00;99.90;;;;;;5031897;28;20037;-75
2023/08/13 11:29:19;;;;;;;7.32;4.95;;;25.00;99.90;;;;;;5012748;28;20129;-74
2023/08/13 11:31:45;;;;;;;7.43;4.18;;;25.00;99.90;;;;;;5033731;28;20152;-75
2023/08/13 11:34:11;;;;;;;8.20;4.22;;;25.00;99.90;;;;;;5014990;28;20025;-75
2023/08/13 11:36:36;;;;;;;6.95;4.53;;;25.00;99.90;;;;;;5007397;28;20022;-75
2023/08/13 11:39:03;;;;;;;9.30;6.60;;;25.00;99.90;;;;;;5028983;28;20033;-74
2023/08/13 11:41:29;;;;;;;12.50;7.45;;;25.00;99.90;;;;;;5010014;28;20028;-74
2023/08/13 11:43:55;;;;;;;9.50;5.13;;;25.00;99.90;;;;;;5027560;28;20029;-74
2023/08/13 11:46:21;;;;;;;8.73;5.10;;;25.00;99.90;;;;;;5030777;28;20493;-74
2023/08/13 11:48:54;;;;;;;7.15;4.63;;;25.00;99.90;;;;;;5024777;28;20163;-74
2023/08/13 11:51:24;;;;;;;7.38;4.55;;;25.10;99.90;;;;;;5029687;28;20035;-75
2023/08/13 11:53:50;;;;;;;5.85;4.20;;;25.10;99.90;;;;;;5029666;28;20091;-75
2023/08/13 11:56:18;;;;;;;5.82;4.53;;;25.10;99.90;;;;;;5026494;28;20021;-75
2023/08/13 11:58:44;;;;;;;5.25;4.40;;;25.10;99.90;;;;;;5009648;28;20029;-74
2023/08/13 12:01:13;;;;;;;5.15;4.35;;;25.10;99.90;;;;;;5026015;28;20426;-74
2023/08/13 12:03:41;;;;;;;5.13;4.28;;;25.00;99.90;;;;;;5026788;28;20080;-74
2023/08/13 12:06:08;;;;;;;5.10;4.38;;;25.00;99.90;;;;;;5028510;28;20112;-74
2023/08/13 12:08:34;;;;;;;6.20;4.80;;;24.90;99.90;;;;;;5032334;28;20025;-74
2023/08/13 12:11:00;;;;;;;8.80;4.75;;;24.80;99.90;;;;;;5029134;28;20079;-74
2023/08/13 12:13:28;;;;;;;7.82;4.05;;;24.80;99.90;;;;;;5029495;28;20167;-74
2023/08/13 12:15:54;;;;;;;5.72;4.53;;;24.70;99.90;;;;;;5011319;28;20041;-73
2023/08/13 12:18:19;;;;;;;5.43;4.65;;;24.70;99.90;;;;;;5028787;28;20049;-73
2023/08/13 12:20:45;;;;;;;5.57;4.72;;;24.70;99.90;;;;;;5033676;28;20765;-73
2023/08/13 12:23:11;;;;;;;7.30;4.22;;;24.70;99.90;;;;;;5028997;28;20040;-75
2023/08/13 12:25:36;;;;;;;4.80;3.97;;;24.70;99.90;;;;;;5028646;28;20438;-74
2023/08/13 12:28:02;;;;;;;7.65;4.45;;;24.80;99.90;;;;;;5030897;28;20486;-74
2023/08/13 12:30:28;;;;;;;5.03;3.88;;;24.80;99.90;;;;;;5025591;28;20060;-74
2023/08/13 12:32:55;;;;;;;6.25;4.63;;;24.90;99.90;;;;;;5031654;28;20029;-73
2023/08/13 12:35:21;;;;;;;5.32;4.10;;;24.90;99.90;;;;;;5027660;28;20038;-75
2023/08/13 12:37:47;;;;;;;6.45;4.28;;;25.00;99.90;;;;;;5031073;28;20033;-75
2023/08/13 12:40:13;;;;;;;6.57;4.25;;;25.10;99.90;;;;;;5031108;28;20103;-75
2023/08/13 12:42:39;;;;;;;5.72;3.70;;;25.10;99.90;;;;;;5012615;28;20025;-74